Terminal Aerodrome Forecast
Issued by NWS

Home | Current Version | Previous Version | Text Only | Print | Product List | Glossary On
Versions: 1 2 3 4 5 6 7 8 9 10 11 12 13 14 15 16 17
456
FTUS43 KGRB 242148 AAB
TAFATW
TAF AMD
KATW 242148Z 2422/2518 26010G16KT P6SM SCT025 BKN040
      TEMPO 2422/2423 BKN025
     FM250400 26004KT P6SM BKN150
     FM251500 28008KT P6SM BKN150=

USA.gov is the U.S. government's official web portal to all federal, state and local government web resources and services.